sensor_id;sensor_type;location;lat;lon;timestamp;pressure;altitude;pressure_sealevel;temperature;humidity
71915;BME280;60387;49.994;14.660;2023-04-06T00:01:38;98097.22;;;2.97;45.25
71915;BME280;60387;49.994;14.660;2023-04-06T00:04:11;98101.78;;;2.97;44.12
71915;BME280;60387;49.994;14.660;2023-04-06T00:06:45;98091.56;;;2.94;44.31
71915;BME280;60387;49.994;14.660;2023-04-06T00:09:18;98095.88;;;2.95;43.70
71915;BME280;60387;49.994;14.660;2023-04-06T00:11:51;98095.28;;;2.93;44.13
71915;BME280;60387;49.994;14.660;2023-04-06T00:14:25;98092.03;;;2.91;44.03
71915;BME280;60387;49.994;14.660;2023-04-06T00:16:58;98086.84;;;2.85;43.81
71915;BME280;60387;49.994;14.660;2023-04-06T00:19:31;98088.97;;;2.83;43.95
71915;BME280;60387;49.994;14.660;2023-04-06T00:22:04;98087.59;;;2.80;44.50
71915;BME280;60387;49.994;14.660;2023-04-06T00:24:38;98089.94;;;2.77;44.45
71915;BME280;60387;49.994;14.660;2023-04-06T00:27:11;98089.03;;;2.71;44.49
71915;BME280;60387;49.994;14.660;2023-04-06T00:29:44;98085.81;;;2.69;44.73
71915;BME280;60387;49.994;14.660;2023-04-06T00:32:18;98087.31;;;2.65;44.28
71915;BME280;60387;49.994;14.660;2023-04-06T00:34:51;98080.59;;;2.63;43.43
71915;BME280;60387;49.994;14.660;2023-04-06T00:37:24;98083.53;;;2.61;43.66
71915;BME280;60387;49.994;14.660;2023-04-06T00:39:58;98069.50;;;2.54;44.64
71915;BME280;60387;49.994;14.660;2023-04-06T00:42:31;98080.84;;;2.61;44.57
71915;BME280;60387;49.994;14.660;2023-04-06T00:45:05;98069.00;;;2.57;44.60
71915;BME280;60387;49.994;14.660;2023-04-06T00:47:38;98071.69;;;2.57;45.26
71915;BME280;60387;49.994;14.660;2023-04-06T00:50:11;98070.28;;;2.55;46.81
71915;BME280;60387;49.994;14.660;2023-04-06T00:52:45;98071.13;;;2.55;46.72
71915;BME280;60387;49.994;14.660;2023-04-06T00:55:18;98073.22;;;2.53;46.26
71915;BME280;60387;49.994;14.660;2023-04-06T00:57:51;98067.56;;;2.50;47.26
71915;BME280;60387;49.994;14.660;2023-04-06T01:00:25;98072.56;;;2.46;47.96
71915;BME280;60387;49.994;14.660;2023-04-06T01:02:58;98070.38;;;2.43;47.79
71915;BME280;60387;49.994;14.660;2023-04-06T01:05:34;98065.50;;;2.40;47.31
71915;BME280;60387;49.994;14.660;2023-04-06T01:08:07;98070.63;;;2.42;46.66
71915;BME280;60387;49.994;14.660;2023-04-06T01:10:40;98066.31;;;2.41;46.28
71915;BME280;60387;49.994;14.660;2023-04-06T01:13:14;98071.41;;;2.42;46.51
71915;BME280;60387;49.994;14.660;2023-04-06T01:15:47;98062.81;;;2.40;47.35
71915;BME280;60387;49.994;14.660;2023-04-06T01:18:26;98064.13;;;2.38;47.19
71915;BME280;60387;49.994;14.660;2023-04-06T01:20:59;98053.69;;;2.36;47.30
71915;BME280;60387;49.994;14.660;2023-04-06T01:23:33;98063.31;;;2.37;47.04
71915;BME280;60387;49.994;14.660;2023-04-06T01:26:06;98058.44;;;2.34;46.95
71915;BME280;60387;49.994;14.660;2023-04-06T01:28:39;98061.09;;;2.34;47.79
71915;BME280;60387;49.994;14.660;2023-04-06T01:31:13;98058.94;;;2.31;48.33
71915;BME280;60387;49.994;14.660;2023-04-06T01:33:47;98057.53;;;2.29;48.25
71915;BME280;60387;49.994;14.660;2023-04-06T01:36:21;98058.84;;;2.26;48.09
71915;BME280;60387;49.994;14.660;2023-04-06T01:38:54;98051.28;;;2.23;47.90
71915;BME280;60387;49.994;14.660;2023-04-06T01:41:28;98053.41;;;2.21;48.09
71915;BME280;60387;49.994;14.660;2023-04-06T01:44:02;98052.25;;;2.17;48.65
71915;BME280;60387;49.994;14.660;2023-04-06T01:46:35;98054.69;;;2.19;48.14
71915;BME280;60387;49.994;14.660;2023-04-06T01:49:08;98050.91;;;2.15;47.56
71915;BME280;60387;49.994;14.660;2023-04-06T01:51:41;98053.22;;;2.11;47.50
71915;BME280;60387;49.994;14.660;2023-04-06T01:54:15;98053.22;;;2.11;47.26
71915;BME280;60387;49.994;14.660;2023-04-06T01:56:48;98043.00;;;2.08;47.73
71915;BME280;60387;49.994;14.660;2023-04-06T01:59:22;98042.94;;;2.03;49.10
71915;BME280;60387;49.994;14.660;2023-04-06T02:01:55;98049.88;;;2.04;50.14
71915;BME280;60387;49.994;14.660;2023-04-06T02:04:29;98047.69;;;2.01;49.80
71915;BME280;60387;49.994;14.660;2023-04-06T02:07:02;98045.03;;;2.01;49.34
71915;BME280;60387;49.994;14.660;2023-04-06T02:09:35;98043.88;;;1.97;50.64
71915;BME280;60387;49.994;14.660;2023-04-06T02:12:09;98040.28;;;1.92;48.76
71915;BME280;60387;49.994;14.660;2023-04-06T02:14:42;98045.41;;;1.93;47.21
71915;BME280;60387;49.994;14.660;2023-04-06T02:17:15;98044.03;;;1.91;46.91
71915;BME280;60387;49.994;14.660;2023-04-06T02:19:49;98042.06;;;1.86;47.22
71915;BME280;60387;49.994;14.660;2023-04-06T02:22:22;98051.69;;;1.87;47.27
71915;BME280;60387;49.994;14.660;2023-04-06T02:24:55;98047.28;;;1.81;46.95
71915;BME280;60387;49.994;14.660;2023-04-06T02:27:28;98054.25;;;1.82;47.39
71915;BME280;60387;49.994;14.660;2023-04-06T02:30:03;98039.22;;;1.76;48.58
71915;BME280;60387;49.994;14.660;2023-04-06T02:32:36;98046.63;;;1.74;47.15
71915;BME280;60387;49.994;14.660;2023-04-06T02:35:09;98047.09;;;1.71;46.91
71915;BME280;60387;49.994;14.660;2023-04-06T02:37:43;98045.97;;;1.67;46.90
71915;BME280;60387;49.994;14.660;2023-04-06T02:40:16;98041.69;;;1.66;47.43
71915;BME280;60387;49.994;14.660;2023-04-06T02:42:49;98050.16;;;1.63;46.77
71915;BME280;60387;49.994;14.660;2023-04-06T02:45:22;98057.94;;;1.65;46.05
71915;BME280;60387;49.994;14.660;2023-04-06T02:47:56;98059.19;;;1.62;46.17
71915;BME280;60387;49.994;14.660;2023-04-06T02:50:29;98050.28;;;1.57;46.21
71915;BME280;60387;49.994;14.660;2023-04-06T02:53:02;98055.50;;;1.52;46.77
71915;BME280;60387;49.994;14.660;2023-04-06T02:55:35;98051.94;;;1.46;46.66
71915;BME280;60387;49.994;14.660;2023-04-06T02:58:09;98055.66;;;1.45;46.33
71915;BME280;60387;49.994;14.660;2023-04-06T03:00:42;98052.41;;;1.43;45.97
71915;BME280;60387;49.994;14.660;2023-04-06T03:03:15;98049.41;;;1.40;45.92
71915;BME280;60387;49.994;14.660;2023-04-06T03:05:49;98049.88;;;1.37;45.67
71915;BME280;60387;49.994;14.660;2023-04-06T03:08:22;98051.16;;;1.34;45.50
71915;BME280;60387;49.994;14.660;2023-04-06T03:10:55;98051.38;;;1.33;46.12
71915;BME280;60387;49.994;14.660;2023-04-06T03:13:28;98054.28;;;1.31;45.87
71915;BME280;60387;49.994;14.660;2023-04-06T03:16:02;98059.59;;;1.31;45.99
71915;BME280;60387;49.994;14.660;2023-04-06T03:18:35;98054.97;;;1.27;45.84
71915;BME280;60387;49.994;14.660;2023-04-06T03:21:08;98057.63;;;1.27;46.08
71915;BME280;60387;49.994;14.660;2023-04-06T03:23:42;98064.84;;;1.26;46.15
71915;BME280;60387;49.994;14.660;2023-04-06T03:26:16;98059.97;;;1.23;45.41
71915;BME280;60387;49.994;14.660;2023-04-06T03:28:49;98054.31;;;1.20;45.86
71915;BME280;60387;49.994;14.660;2023-04-06T03:31:22;98057.53;;;1.22;46.43
71915;BME280;60387;49.994;14.660;2023-04-06T03:33:56;98057.69;;;1.15;48.57
71915;BME280;60387;49.994;14.660;2023-04-06T03:36:29;98051.50;;;1.15;48.65
71915;BME280;60387;49.994;14.660;2023-04-06T03:39:02;98056.28;;;1.13;48.30
71915;BME280;60387;49.994;14.660;2023-04-06T03:41:36;98072.50;;;1.11;48.89
71915;BME280;60387;49.994;14.660;2023-04-06T03:44:09;98062.31;;;1.08;48.74
71915;BME280;60387;49.994;14.660;2023-04-06T03:46:42;98056.16;;;1.08;49.85
71915;BME280;60387;49.994;14.660;2023-04-06T03:49:15;98053.13;;;1.04;49.04
71915;BME280;60387;49.994;14.660;2023-04-06T03:51:49;98063.00;;;1.04;49.47
71915;BME280;60387;49.994;14.660;2023-04-06T03:54:22;98068.00;;;1.00;48.76
71915;BME280;60387;49.994;14.660;2023-04-06T03:56:55;98077.25;;;0.98;48.80
71915;BME280;60387;49.994;14.660;2023-04-06T03:59:29;98080.97;;;0.97;48.21
71915;BME280;60387;49.994;14.660;2023-04-06T04:02:02;98072.41;;;0.95;49.13
71915;BME280;60387;49.994;14.660;2023-04-06T04:04:35;98074.03;;;0.96;50.71
71915;BME280;60387;49.994;14.660;2023-04-06T04:07:08;98072.97;;;0.97;52.57
71915;BME280;60387;49.994;14.660;2023-04-06T04:09:42;98085.25;;;0.98;51.47
71915;BME280;60387;49.994;14.660;2023-04-06T04:12:15;98069.75;;;0.95;51.00
71915;BME280;60387;49.994;14.660;2023-04-06T04:14:48;98083.66;;;0.97;50.70
71915;BME280;60387;49.994;14.660;2023-04-06T04:17:22;98079.09;;;0.97;49.96
71915;BME280;60387;49.994;14.660;2023-04-06T04:19:55;98086.31;;;0.97;49.95
71915;BME280;60387;49.994;14.660;2023-04-06T04:22:28;98076.91;;;0.94;51.20
71915;BME280;60387;49.994;14.660;2023-04-06T04:25:01;98083.88;;;0.95;49.80
71915;BME280;60387;49.994;14.660;2023-04-06T04:27:35;98083.88;;;0.95;49.75
71915;BME280;60387;49.994;14.660;2023-04-06T04:30:08;98084.34;;;0.92;49.34
71915;BME280;60387;49.994;14.660;2023-04-06T04:32:42;98084.91;;;0.94;48.43
71915;BME280;60387;49.994;14.660;2023-04-06T04:35:15;98085.50;;;0.96;48.87
71915;BME280;60387;49.994;14.660;2023-04-06T04:37:48;98082.25;;;0.94;49.52
71915;BME280;60387;49.994;14.660;2023-04-06T04:40:22;98088.63;;;0.93;48.70
71915;BME280;60387;49.994;14.660;2023-04-06T04:42:55;98089.34;;;1.00;48.42
71915;BME280;60387;49.994;14.660;2023-04-06T04:45:28;98088.28;;;1.01;48.30
71915;BME280;60387;49.994;14.660;2023-04-06T04:48:01;98094.41;;;1.02;48.78
71915;BME280;60387;49.994;14.660;2023-04-06T04:50:35;98101.72;;;1.18;48.96
71915;BME280;60387;49.994;14.660;2023-04-06T04:53:08;98097.78;;;1.43;48.66
71915;BME280;60387;49.994;14.660;2023-04-06T04:55:41;98089.94;;;1.76;48.11
71915;BME280;60387;49.994;14.660;2023-04-06T04:58:14;98100.97;;;2.08;47.61
71915;BME280;60387;49.994;14.660;2023-04-06T05:00:48;98093.44;;;2.33;47.31
71915;BME280;60387;49.994;14.660;2023-04-06T05:03:23;98089.16;;;2.48;47.20
71915;BME280;60387;49.994;14.660;2023-04-06T05:05:57;98092.94;;;2.80;47.08
71915;BME280;60387;49.994;14.660;2023-04-06T05:08:30;98098.34;;;3.18;46.68
71915;BME280;60387;49.994;14.660;2023-04-06T05:11:04;98095.25;;;3.42;46.04
71915;BME280;60387;49.994;14.660;2023-04-06T05:13:37;98092.94;;;3.51;46.57
71915;BME280;60387;49.994;14.660;2023-04-06T05:16:10;98089.28;;;3.57;45.80
71915;BME280;60387;49.994;14.660;2023-04-06T05:18:44;98088.41;;;3.73;45.58
71915;BME280;60387;49.994;14.660;2023-04-06T05:21:18;98095.41;;;3.95;45.64
71915;BME280;60387;49.994;14.660;2023-04-06T05:23:51;98098.16;;;4.27;45.90
71915;BME280;60387;49.994;14.660;2023-04-06T05:26:25;98090.75;;;4.60;45.07
71915;BME280;60387;49.994;14.660;2023-04-06T05:28:58;98090.47;;;4.88;45.11
71915;BME280;60387;49.994;14.660;2023-04-06T05:31:31;98104.03;;;5.08;45.09
71915;BME280;60387;49.994;14.660;2023-04-06T05:34:05;98104.75;;;5.30;44.46
71915;BME280;60387;49.994;14.660;2023-04-06T05:36:38;98113.19;;;5.49;44.40
71915;BME280;60387;49.994;14.660;2023-04-06T05:39:12;98105.50;;;5.67;44.44
71915;BME280;60387;49.994;14.660;2023-04-06T05:41:45;98105.09;;;5.85;44.36
71915;BME280;60387;49.994;14.660;2023-04-06T05:44:19;98116.75;;;6.06;44.54
71915;BME280;60387;49.994;14.660;2023-04-06T05:46:52;98106.06;;;6.25;44.48
71915;BME280;60387;49.994;14.660;2023-04-06T05:49:25;98104.53;;;6.49;44.51
71915;BME280;60387;49.994;14.660;2023-04-06T05:51:59;98121.81;;;6.73;44.60
71915;BME280;60387;49.994;14.660;2023-04-06T05:54:32;98125.59;;;6.82;44.37
71915;BME280;60387;49.994;14.660;2023-04-06T05:57:05;98117.81;;;6.91;44.09
71915;BME280;60387;49.994;14.660;2023-04-06T05:59:38;98130.47;;;7.05;43.91
71915;BME280;60387;49.994;14.660;2023-04-06T06:02:12;98124.25;;;7.15;43.94
71915;BME280;60387;49.994;14.660;2023-04-06T06:04:45;98122.38;;;7.15;43.97
71915;BME280;60387;49.994;14.660;2023-04-06T06:07:19;98119.97;;;7.19;43.98
71915;BME280;60387;49.994;14.660;2023-04-06T06:09:52;98128.59;;;7.26;44.14
71915;BME280;60387;49.994;14.660;2023-04-06T06:12:25;98125.06;;;7.35;43.98
71915;BME280;60387;49.994;14.660;2023-04-06T06:14:59;98123.44;;;7.34;43.59
71915;BME280;60387;49.994;14.660;2023-04-06T06:17:32;98123.19;;;7.31;43.45
71915;BME280;60387;49.994;14.660;2023-04-06T06:20:07;98126.16;;;7.39;43.42
71915;BME280;60387;49.994;14.660;2023-04-06T06:22:40;98132.59;;;7.48;43.52
71915;BME280;60387;49.994;14.660;2023-04-06T06:25:13;98122.88;;;7.62;43.23
71915;BME280;60387;49.994;14.660;2023-04-06T06:27:47;98125.53;;;7.77;42.90
71915;BME280;60387;49.994;14.660;2023-04-06T06:30:20;98126.59;;;7.86;42.84
71915;BME280;60387;49.994;14.660;2023-04-06T06:32:53;98123.03;;;8.06;42.46
71915;BME280;60387;49.994;14.660;2023-04-06T06:35:27;98125.19;;;8.19;42.52
71915;BME280;60387;49.994;14.660;2023-04-06T06:38:00;98132.09;;;8.40;42.27
71915;BME280;60387;49.994;14.660;2023-04-06T06:40:33;98134.69;;;8.65;42.34
71915;BME280;60387;49.994;14.660;2023-04-06T06:43:07;98132.59;;;8.95;42.15
71915;BME280;60387;49.994;14.660;2023-04-06T06:45:40;98122.88;;;9.28;41.75
71915;BME280;60387;49.994;14.660;2023-04-06T06:48:13;98125.28;;;9.62;41.65
71915;BME280;60387;49.994;14.660;2023-04-06T06:50:47;98118.34;;;10.08;41.69
71915;BME280;60387;49.994;14.660;2023-04-06T06:53:21;98113.75;;;10.51;41.90
71915;BME280;60387;49.994;14.660;2023-04-06T06:55:54;98120.06;;;11.02;40.85
71915;BME280;60387;49.994;14.660;2023-04-06T06:58:27;98118.44;;;11.38;40.24
71915;BME280;60387;49.994;14.660;2023-04-06T07:01:01;98114.81;;;11.74;40.23
71915;BME280;60387;49.994;14.660;2023-04-06T07:03:34;98111.84;;;12.16;40.08
71915;BME280;60387;49.994;14.660;2023-04-06T07:06:07;98118.34;;;12.56;39.52
71915;BME280;60387;49.994;14.660;2023-04-06T07:08:40;98109.56;;;12.85;39.53
71915;BME280;60387;49.994;14.660;2023-04-06T07:11:14;98116.63;;;13.22;38.91
71915;BME280;60387;49.994;14.660;2023-04-06T07:13:47;98116.69;;;13.52;38.69
71915;BME280;60387;49.994;14.660;2023-04-06T07:16:20;98112.69;;;13.80;38.40
71915;BME280;60387;49.994;14.660;2023-04-06T07:18:54;98114.63;;;14.10;38.11
71915;BME280;60387;49.994;14.660;2023-04-06T07:21:27;98107.84;;;14.38;37.74
71915;BME280;60387;49.994;14.660;2023-04-06T07:24:00;98120.28;;;14.61;36.76
71915;BME280;60387;49.994;14.660;2023-04-06T07:26:33;98118.41;;;14.87;37.43
71915;BME280;60387;49.994;14.660;2023-04-06T07:29:07;98110.69;;;15.15;37.06
71915;BME280;60387;49.994;14.660;2023-04-06T07:31:40;98116.19;;;15.40;36.71
71915;BME280;60387;49.994;14.660;2023-04-06T07:34:13;98122.75;;;15.65;36.76
71915;BME280;60387;49.994;14.660;2023-04-06T07:36:47;98130.75;;;15.87;34.90
71915;BME280;60387;49.994;14.660;2023-04-06T07:39:20;98128.75;;;16.04;35.51
71915;BME280;60387;49.994;14.660;2023-04-06T07:41:53;98121.47;;;16.17;32.81
71915;BME280;60387;49.994;14.660;2023-04-06T07:44:27;98122.69;;;16.36;33.24
71915;BME280;60387;49.994;14.660;2023-04-06T07:47:00;98128.13;;;16.53;33.48
71915;BME280;60387;49.994;14.660;2023-04-06T07:49:33;98128.31;;;16.77;34.93
71915;BME280;60387;49.994;14.660;2023-04-06T07:52:07;98127.28;;;17.10;33.85
71915;BME280;60387;49.994;14.660;2023-04-06T07:54:40;98130.78;;;17.40;33.05
71915;BME280;60387;49.994;14.660;2023-04-06T07:57:14;98129.06;;;17.68;33.72
71915;BME280;60387;49.994;14.660;2023-04-06T07:59:47;98132.38;;;17.94;32.93
71915;BME280;60387;49.994;14.660;2023-04-06T08:02:20;98127.41;;;18.20;31.64
71915;BME280;60387;49.994;14.660;2023-04-06T08:04:54;98138.88;;;18.34;31.55
71915;BME280;60387;49.994;14.660;2023-04-06T08:07:27;98120.81;;;18.33;31.83
71915;BME280;60387;49.994;14.660;2023-04-06T08:10:00;98117.88;;;18.38;31.31
71915;BME280;60387;49.994;14.660;2023-04-06T08:12:34;98128.72;;;18.34;30.06
71915;BME280;60387;49.994;14.660;2023-04-06T08:15:07;98121.31;;;18.14;30.28
71915;BME280;60387;49.994;14.660;2023-04-06T08:17:41;98115.38;;;18.12;30.05
71915;BME280;60387;49.994;14.660;2023-04-06T08:20:14;98115.50;;;18.16;27.90
71915;BME280;60387;49.994;14.660;2023-04-06T08:22:47;98119.50;;;18.18;28.61
71915;BME280;60387;49.994;14.660;2023-04-06T08:25:21;98118.19;;;18.36;29.61
71915;BME280;60387;49.994;14.660;2023-04-06T08:27:54;98117.41;;;18.60;28.89
71915;BME280;60387;49.994;14.660;2023-04-06T08:30:28;98100.94;;;18.60;29.79
71915;BME280;60387;49.994;14.660;2023-04-06T08:33:01;98112.22;;;18.82;27.48
71915;BME280;60387;49.994;14.660;2023-04-06T08:35:34;98112.13;;;18.91;28.91
71915;BME280;60387;49.994;14.660;2023-04-06T08:38:08;98113.47;;;19.09;28.25
71915;BME280;60387;49.994;14.660;2023-04-06T08:40:41;98107.28;;;19.12;27.23
71915;BME280;60387;49.994;14.660;2023-04-06T08:43:15;98106.13;;;19.13;27.29
71915;BME280;60387;49.994;14.660;2023-04-06T08:45:50;98118.84;;;19.17;25.13
71915;BME280;60387;49.994;14.660;2023-04-06T08:48:23;98111.88;;;18.96;23.73
71915;BME280;60387;49.994;14.660;2023-04-06T08:50:57;98122.91;;;18.72;26.30
71915;BME280;60387;49.994;14.660;2023-04-06T08:53:30;98113.19;;;18.62;27.95
71915;BME280;60387;49.994;14.660;2023-04-06T08:56:04;98112.94;;;18.79;27.13
71915;BME280;60387;49.994;14.660;2023-04-06T08:58:39;98122.53;;;18.85;27.12
71915;BME280;60387;49.994;14.660;2023-04-06T09:01:13;98107.66;;;18.74;25.50
71915;BME280;60387;49.994;14.660;2023-04-06T09:03:48;98107.56;;;18.59;26.90
71915;BME280;60387;49.994;14.660;2023-04-06T09:06:22;98109.84;;;18.69;26.89
71915;BME280;60387;49.994;14.660;2023-04-06T09:08:55;98109.13;;;18.96;26.48
71915;BME280;60387;49.994;14.660;2023-04-06T09:11:28;98104.34;;;18.93;26.21
71915;BME280;60387;49.994;14.660;2023-04-06T09:14:01;98106.63;;;18.91;26.33
71915;BME280;60387;49.994;14.660;2023-04-06T09:16:43;98106.72;;;19.06;27.16
71915;BME280;60387;49.994;14.660;2023-04-06T09:19:16;98098.00;;;19.28;26.32
71915;BME280;60387;49.994;14.660;2023-04-06T09:21:49;98096.47;;;19.43;26.25
71915;BME280;60387;49.994;14.660;2023-04-06T09:24:23;98101.66;;;19.60;25.91
71915;BME280;60387;49.994;14.660;2023-04-06T09:26:56;98110.31;;;19.74;24.58
71915;BME280;60387;49.994;14.660;2023-04-06T09:29:29;98106.09;;;19.91;24.48
71915;BME280;60387;49.994;14.660;2023-04-06T09:32:05;98105.69;;;20.05;25.50
71915;BME280;60387;49.994;14.660;2023-04-06T09:34:38;98088.91;;;20.10;23.00
71915;BME280;60387;49.994;14.660;2023-04-06T09:37:16;98093.28;;;20.11;22.70
71915;BME280;60387;49.994;14.660;2023-04-06T09:39:50;98084.72;;;20.00;23.62
71915;BME280;60387;49.994;14.660;2023-04-06T09:42:27;98087.78;;;20.11;23.32
71915;BME280;60387;49.994;14.660;2023-04-06T09:45:02;98092.38;;;20.22;24.59
71915;BME280;60387;49.994;14.660;2023-04-06T09:47:36;98085.94;;;20.46;22.77
71915;BME280;60387;49.994;14.660;2023-04-06T09:50:11;98086.78;;;20.65;23.65
71915;BME280;60387;49.994;14.660;2023-04-06T09:52:50;98084.84;;;20.19;22.20
71915;BME280;60387;49.994;14.660;2023-04-06T09:55:40;98082.22;;;19.53;21.15
71915;BME280;60387;49.994;14.660;2023-04-06T09:58:19;98087.41;;;18.91;23.26
71915;BME280;60387;49.994;14.660;2023-04-06T10:01:04;98086.97;;;18.77;24.00
71915;BME280;60387;49.994;14.660;2023-04-06T10:04:09;98074.91;;;19.05;24.00
71915;BME280;60387;49.994;14.660;2023-04-06T10:06:46;98077.00;;;19.48;23.60
71915;BME280;60387;49.994;14.660;2023-04-06T10:09:24;98072.97;;;19.73;23.40
71915;BME280;60387;49.994;14.660;2023-04-06T10:11:58;98088.16;;;19.97;23.65
71915;BME280;60387;49.994;14.660;2023-04-06T10:14:33;98080.31;;;20.27;23.30
71915;BME280;60387;49.994;14.660;2023-04-06T10:17:07;98080.94;;;20.51;23.13
71915;BME280;60387;49.994;14.660;2023-04-06T10:22:30;98069.00;;;20.94;22.73
71915;BME280;60387;49.994;14.660;2023-04-06T10:25:05;98060.81;;;20.82;21.59
71915;BME280;60387;49.994;14.660;2023-04-06T10:27:39;98069.22;;;20.54;21.82
71915;BME280;60387;49.994;14.660;2023-04-06T10:30:15;98069.50;;;20.18;21.77
71915;BME280;60387;49.994;14.660;2023-04-06T10:32:48;98065.50;;;19.58;22.02
71915;BME280;60387;49.994;14.660;2023-04-06T10:35:22;98063.56;;;19.19;22.08
71915;BME280;60387;49.994;14.660;2023-04-06T10:38:03;98063.84;;;18.90;21.99
71915;BME280;60387;49.994;14.660;2023-04-06T10:40:37;98053.63;;;18.63;22.26
71915;BME280;60387;49.994;14.660;2023-04-06T10:43:12;98051.78;;;18.31;23.01
71915;BME280;60387;49.994;14.660;2023-04-06T10:45:54;98043.09;;;17.60;22.25
71915;BME280;60387;49.994;14.660;2023-04-06T10:48:41;98048.56;;;17.28;21.46
71915;BME280;60387;49.994;14.660;2023-04-06T10:51:16;98053.44;;;17.22;23.07
71915;BME280;60387;49.994;14.660;2023-04-06T10:53:50;98041.09;;;17.37;22.94
71915;BME280;60387;49.994;14.660;2023-04-06T10:56:25;98049.50;;;17.64;23.57
71915;BME280;60387;49.994;14.660;2023-04-06T10:58:58;98039.16;;;17.82;23.18
71915;BME280;60387;49.994;14.660;2023-04-06T11:01:31;98035.75;;;17.97;23.27
71915;BME280;60387;49.994;14.660;2023-04-06T11:04:05;98036.09;;;18.07;22.43
71915;BME280;60387;49.994;14.660;2023-04-06T11:06:38;98031.53;;;17.99;22.63
71915;BME280;60387;49.994;14.660;2023-04-06T11:09:11;98040.84;;;17.74;22.19
71915;BME280;60387;49.994;14.660;2023-04-06T11:11:45;98033.41;;;17.30;22.35
71915;BME280;60387;49.994;14.660;2023-04-06T11:14:18;98032.47;;;17.06;23.06
71915;BME280;60387;49.994;14.660;2023-04-06T11:16:51;98035.16;;;16.94;22.58
71915;BME280;60387;49.994;14.660;2023-04-06T11:19:24;98040.09;;;17.00;22.23
71915;BME280;60387;49.994;14.660;2023-04-06T11:22:07;98032.38;;;17.35;22.42
71915;BME280;60387;49.994;14.660;2023-04-06T11:24:40;98030.47;;;17.80;22.00
71915;BME280;60387;49.994;14.660;2023-04-06T11:27:14;98028.09;;;18.14;21.71
71915;BME280;60387;49.994;14.660;2023-04-06T11:29:47;98020.91;;;18.22;22.23
71915;BME280;60387;49.994;14.660;2023-04-06T11:32:21;98025.94;;;18.08;22.30
71915;BME280;60387;49.994;14.660;2023-04-06T11:34:57;98022.94;;;17.77;22.55
71915;BME280;60387;49.994;14.660;2023-04-06T11:37:30;98023.47;;;17.58;22.11
71915;BME280;60387;49.994;14.660;2023-04-06T11:40:07;98016.97;;;17.75;23.08
71915;BME280;60387;49.994;14.660;2023-04-06T11:42:41;98017.81;;;18.23;23.21
71915;BME280;60387;49.994;14.660;2023-04-06T11:45:15;98010.00;;;18.73;22.31
71915;BME280;60387;49.994;14.660;2023-04-06T11:47:56;98012.19;;;19.19;22.32
71915;BME280;60387;49.994;14.660;2023-04-06T11:50:33;98002.28;;;19.58;20.85
71915;BME280;60387;49.994;14.660;2023-04-06T11:53:06;98007.78;;;19.88;21.47
71915;BME280;60387;49.994;14.660;2023-04-06T11:55:39;98009.66;;;20.00;21.01
71915;BME280;60387;49.994;14.660;2023-04-06T11:58:12;98010.31;;;20.09;21.33
71915;BME280;60387;49.994;14.660;2023-04-06T12:00:46;98012.50;;;20.03;21.13
71915;BME280;60387;49.994;14.660;2023-04-06T12:03:19;97992.88;;;19.59;19.97
71915;BME280;60387;49.994;14.660;2023-04-06T12:05:52;98006.31;;;19.33;20.68
71915;BME280;60387;49.994;14.660;2023-04-06T12:08:26;98004.34;;;18.94;20.99
71915;BME280;60387;49.994;14.660;2023-04-06T12:10:59;98002.88;;;18.45;20.54
71915;BME280;60387;49.994;14.660;2023-04-06T12:13:32;97999.44;;;18.24;21.00
71915;BME280;60387;49.994;14.660;2023-04-06T12:16:05;97994.06;;;18.15;21.55
71915;BME280;60387;49.994;14.660;2023-04-06T12:18:39;97990.66;;;18.30;21.66
71915;BME280;60387;49.994;14.660;2023-04-06T12:21:12;97992.09;;;18.52;21.23
71915;BME280;60387;49.994;14.660;2023-04-06T12:23:45;97997.22;;;18.65;20.81
71915;BME280;60387;49.994;14.660;2023-04-06T12:26:19;97980.75;;;18.65;20.72
71915;BME280;60387;49.994;14.660;2023-04-06T12:28:52;97982.72;;;18.53;20.22
71915;BME280;60387;49.994;14.660;2023-04-06T12:31:26;97985.03;;;18.51;20.90
71915;BME280;60387;49.994;14.660;2023-04-06T12:33:59;97986.84;;;18.59;21.25
71915;BME280;60387;49.994;14.660;2023-04-06T12:36:33;97970.34;;;18.71;21.47
71915;BME280;60387;49.994;14.660;2023-04-06T12:39:06;97969.81;;;18.93;20.82
71915;BME280;60387;49.994;14.660;2023-04-06T12:41:40;97969.31;;;19.03;20.19
71915;BME280;60387;49.994;14.660;2023-04-06T12:44:13;97962.53;;;19.12;20.04
71915;BME280;60387;49.994;14.660;2023-04-06T12:46:47;97961.88;;;19.03;20.25
71915;BME280;60387;49.994;14.660;2023-04-06T12:49:20;97957.00;;;18.97;19.88
71915;BME280;60387;49.994;14.660;2023-04-06T12:51:53;97956.72;;;19.02;19.96
71915;BME280;60387;49.994;14.660;2023-04-06T12:54:27;97966.84;;;18.98;20.17
71915;BME280;60387;49.994;14.660;2023-04-06T12:57:00;97955.34;;;19.08;19.82
71915;BME280;60387;49.994;14.660;2023-04-06T12:59:33;97961.72;;;19.12;19.89
71915;BME280;60387;49.994;14.660;2023-04-06T13:02:07;97952.94;;;19.06;19.93
71915;BME280;60387;49.994;14.660;2023-04-06T13:04:40;97940.53;;;18.97;19.72
71915;BME280;60387;49.994;14.660;2023-04-06T13:07:13;97945.06;;;19.05;20.42
71915;BME280;60387;49.994;14.660;2023-04-06T13:09:46;97937.81;;;19.12;20.51
71915;BME280;60387;49.994;14.660;2023-04-06T13:12:20;97937.72;;;19.09;20.07
71915;BME280;60387;49.994;14.660;2023-04-06T13:14:53;97936.66;;;19.13;20.23
71915;BME280;60387;49.994;14.660;2023-04-06T13:17:27;97930.44;;;19.28;20.56
71915;BME280;60387;49.994;14.660;2023-04-06T13:20:00;97934.44;;;19.46;20.01
71915;BME280;60387;49.994;14.660;2023-04-06T13:22:34;97937.63;;;19.48;19.22
71915;BME280;60387;49.994;14.660;2023-04-06T13:25:07;97931.59;;;19.27;19.53
71915;BME280;60387;49.994;14.660;2023-04-06T13:27:40;97936.34;;;19.03;20.34
71915;BME280;60387;49.994;14.660;2023-04-06T13:30:14;97935.06;;;18.85;20.16
71915;BME280;60387;49.994;14.660;2023-04-06T13:32:47;97931.22;;;18.74;21.01